»·PEaware :: N314SK KBDN-KPDX

N314SK :: KBDN-KPDX

FLIGHT INFORMATION

Flight Status: Arrived
Operator: Privately registered:
United States
More flights under this callsign
Pilot: Doug L. (8712)
Aircraft: SOCATA TBM-900
(TBM9)
More flights by this aircraft type
Origin: KBDN Bend Mun
United States
Destination: KPDX Portland Intl
United States
More flights between these airports :: More routes between these airports
Route: +BDN1 DSD V165 MAVER V448 BTG
File this flight plan on PilotEdge
Remarks:
Altitude:
(Current/Filed)
18,000ft
Speed:
(Current/Filed)
300kts
Departed: 30-Nov-18 06:53 PM
Arrived: 30-Nov-18 07:32 PM
Distance/Time
Traveled:
107nm/0:38
Distance/Time
To Go:
Arrived

Flight Plot

Page will automatically refresh every two minutes.

Flight plan parsing failed; only flown route is shown


Map Options




Map Legend


Flown Route
Filed Route
Departure Airport
Arrival Airport
Navaid (VOR, NDB)
Fix

Horizontal Profiles

Position Reports

Time Latitude Longitude Heading Altitude Ground
Speed
30-Nov-18 18:41 44.093775 -121.201741 179 3427ft 0kts
30-Nov-18 18:42 44.093775 -121.201741 179 3427ft 0kts
30-Nov-18 18:43 44.093775 -121.201741 179 3427ft 0kts
30-Nov-18 18:44 44.093775 -121.201741 179 3427ft 0kts
30-Nov-18 18:45 44.093775 -121.201741 179 3427ft 0kts
30-Nov-18 18:46 44.093775 -121.201741 179 3427ft 0kts
30-Nov-18 18:47 44.093775 -121.201741 179 3427ft 0kts
30-Nov-18 18:48 44.093775 -121.201741 179 3427ft 0kts
30-Nov-18 18:49 44.095019 -121.201366 1 3422ft 27kts
30-Nov-18 18:50 44.100818 -121.201521 324 3407ft 9kts
30-Nov-18 18:51 44.101262 -121.201759 359 3406ft 0kts
30-Nov-18 18:52 44.101262 -121.201759 359 3406ft 0kts
30-Nov-18 18:53 44.101262 -121.201759 359 3406ft 0kts
30-Nov-18 18:54 44.101262 -121.201759 359 3406ft 0kts
30-Nov-18 18:55 44.101394 -121.201763 359 3406ft 7kts
30-Nov-18 18:56 44.096710 -121.200315 183 3427ft 91kts
30-Nov-18 18:57 44.064392 -121.200155 185 5152ft 130kts
30-Nov-18 18:58 44.031943 -121.190580 110 7008ft 164kts
30-Nov-18 18:59 44.062610 -121.166422 326 8702ft 158kts
30-Nov-18 19:00 44.102631 -121.191341 325 10360ft 158kts
30-Nov-18 19:01 44.141130 -121.218092 321 12006ft 148kts
30-Nov-18 19:02 44.176353 -121.243660 320 14150ft 149kts
30-Nov-18 19:03 44.212387 -121.270467 319 16700ft 150kts
30-Nov-18 19:04 44.247622 -121.299339 317 19077ft 151kts
30-Nov-18 19:05 44.280777 -121.345482 307 19891ft 213kts
30-Nov-18 19:06 44.325145 -121.410765 307 19877ft 251kts
30-Nov-18 19:07 44.373396 -121.482294 307 19871ft 260kts
30-Nov-18 19:08 44.422137 -121.554817 307 19869ft 261kts
30-Nov-18 19:09 44.471072 -121.627823 307 19867ft 261kts
30-Nov-18 19:10 44.520014 -121.701030 307 19874ft 261kts
30-Nov-18 19:11 44.565108 -121.768665 307 19873ft 261kts
30-Nov-18 19:12 44.614670 -121.843191 307 19432ft 272kts
30-Nov-18 19:13 44.665045 -121.919113 307 18470ft 273kts
30-Nov-18 19:14 44.710718 -121.988151 307 17594ft 274kts
30-Nov-18 19:15 44.754181 -122.054005 307 16760ft 274kts
30-Nov-18 19:16 44.805091 -122.131357 307 15782ft 275kts
30-Nov-18 19:17 44.853895 -122.205681 307 15001ft 266kts
30-Nov-18 19:18 44.898106 -122.273223 307 14435ft 255kts
30-Nov-18 19:19 44.943143 -122.342218 307 12754ft 258kts
30-Nov-18 19:20 44.984954 -122.406395 307 11450ft 251kts
30-Nov-18 19:21 45.022147 -122.463639 307 10348ft 242kts
30-Nov-18 19:22 45.060732 -122.523127 307 9123ft 225kts
30-Nov-18 19:23 45.101255 -122.585796 308 8010ft 248kts
30-Nov-18 19:24 45.154833 -122.606241 358 6962ft 269kts
30-Nov-18 19:25 45.228210 -122.604739 359 5710ft 269kts
30-Nov-18 19:26 45.299995 -122.603187 0 4424ft 260kts
30-Nov-18 19:27 45.361265 -122.601837 0 3318ft 258kts
30-Nov-18 19:28 45.417324 -122.600607 0 2990ft 243kts
30-Nov-18 19:29 45.467441 -122.608875 339 2694ft 220kts
30-Nov-18 19:30 45.506317 -122.628638 337 2004ft 207kts
30-Nov-18 19:31 45.553947 -122.649821 354 1175ft 176kts
30-Nov-18 19:32 45.581920 -122.640192 18 664ft 150kts
30-Nov-18 19:33 45.599749 -122.621222 81 520ft 92kts
30-Nov-18 19:34 45.593244 -122.591962 120 32ft 77kts
30-Nov-18 19:35 45.590289 -122.586501 266 32ft 15kts
30-Nov-18 19:36 45.589611 -122.587954 119 32ft 17kts
30-Nov-18 19:37 45.587785 -122.584530 176 32ft 10kts
30-Nov-18 19:38 45.587463 -122.584311 123 32ft 0kts
30-Nov-18 19:39 45.587463 -122.584311 123 32ft 0kts

Navigation Log

Ident Type
Flight plan parsing failed, navigation log unavailable